sensor_id;sensor_type;location;lat;lon;timestamp;temperature;humidity
73570;SHT30;61850;54.980;73.298;2022-08-01T00:01:44;19.34;81.11
73570;SHT30;61850;54.980;73.298;2022-08-01T00:04:15;19.34;81.02
73570;SHT30;61850;54.980;73.298;2022-08-01T00:06:41;19.37;81.06
73570;SHT30;61850;54.980;73.298;2022-08-01T00:09:08;19.40;80.97
73570;SHT30;61850;54.980;73.298;2022-08-01T00:11:36;19.41;80.95
73570;SHT30;61850;54.980;73.298;2022-08-01T00:14:12;19.43;80.89
73570;SHT30;61850;54.980;73.298;2022-08-01T00:16:41;19.45;80.84
73570;SHT30;61850;54.980;73.298;2022-08-01T00:19:07;19.46;80.83
73570;SHT30;61850;54.980;73.298;2022-08-01T00:21:33;19.51;80.69
73570;SHT30;61850;54.980;73.298;2022-08-01T00:23:59;19.53;80.66
73570;SHT30;61850;54.980;73.298;2022-08-01T00:26:26;19.56;80.64
73570;SHT30;61850;54.980;73.298;2022-08-01T00:28:52;19.60;80.55
73570;SHT30;61850;54.980;73.298;2022-08-01T00:31:18;19.63;80.53
73570;SHT30;61850;54.980;73.298;2022-08-01T00:33:56;19.67;80.31
73570;SHT30;61850;54.980;73.298;2022-08-01T00:36:22;19.71;80.18
73570;SHT30;61850;54.980;73.298;2022-08-01T00:38:48;19.78;79.96
73570;SHT30;61850;54.980;73.298;2022-08-01T00:41:15;19.82;79.74
73570;SHT30;61850;54.980;73.298;2022-08-01T00:43:47;19.85;79.70
73570;SHT30;61850;54.980;73.298;2022-08-01T00:46:13;19.91;79.59
73570;SHT30;61850;54.980;73.298;2022-08-01T00:48:39;19.94;79.43
73570;SHT30;61850;54.980;73.298;2022-08-01T00:51:05;19.95;79.38
73570;SHT30;61850;54.980;73.298;2022-08-01T00:53:39;20.01;79.15
73570;SHT30;61850;54.980;73.298;2022-08-01T00:56:05;20.02;79.16
73570;SHT30;61850;54.980;73.298;2022-08-01T00:58:32;20.02;79.12
73570;SHT30;61850;54.980;73.298;2022-08-01T01:00:59;20.05;79.10
73570;SHT30;61850;54.980;73.298;2022-08-01T01:03:26;20.09;79.07
73570;SHT30;61850;54.980;73.298;2022-08-01T01:08:35;20.25;78.68
73570;SHT30;61850;54.980;73.298;2022-08-01T01:11:32;20.28;78.53
73570;SHT30;61850;54.980;73.298;2022-08-01T01:14:21;20.32;78.42
73570;SHT30;61850;54.980;73.298;2022-08-01T01:16:49;20.33;78.27
73570;SHT30;61850;54.980;73.298;2022-08-01T01:19:23;20.30;78.25
73570;SHT30;61850;54.980;73.298;2022-08-01T01:22:00;20.37;78.23
73570;SHT30;61850;54.980;73.298;2022-08-01T01:24:44;20.37;78.39
73570;SHT30;61850;54.980;73.298;2022-08-01T01:30:11;20.50;77.90
73570;SHT30;61850;54.980;73.298;2022-08-01T01:32:39;20.56;77.75
73570;SHT30;61850;54.980;73.298;2022-08-01T01:35:31;20.63;77.55
73570;SHT30;61850;54.980;73.298;2022-08-01T01:38:12;20.66;77.42
73570;SHT30;61850;54.980;73.298;2022-08-01T01:40:41;20.73;77.37
73570;SHT30;61850;54.980;73.298;2022-08-01T01:43:12;20.81;77.16
73570;SHT30;61850;54.980;73.298;2022-08-01T01:45:41;20.90;76.63
73570;SHT30;61850;54.980;73.298;2022-08-01T01:48:09;20.88;76.62
73570;SHT30;61850;54.980;73.298;2022-08-01T01:50:46;20.98;76.36
73570;SHT30;61850;54.980;73.298;2022-08-01T01:53:15;21.05;76.07
73570;SHT30;61850;54.980;73.298;2022-08-01T01:55:52;21.07;75.77
73570;SHT30;61850;54.980;73.298;2022-08-01T01:58:21;21.07;75.79
73570;SHT30;61850;54.980;73.298;2022-08-01T02:00:51;21.12;75.61
73570;SHT30;61850;54.980;73.298;2022-08-01T02:03:18;21.21;75.51
73570;SHT30;61850;54.980;73.298;2022-08-01T02:05:46;21.28;75.06
73570;SHT30;61850;54.980;73.298;2022-08-01T02:08:15;21.34;74.73
73570;SHT30;61850;54.980;73.298;2022-08-01T02:10:44;21.41;74.47
73570;SHT30;61850;54.980;73.298;2022-08-01T02:13:34;21.50;74.23
73570;SHT30;61850;54.980;73.298;2022-08-01T02:16:03;21.56;73.88
73570;SHT30;61850;54.980;73.298;2022-08-01T02:18:30;21.58;73.67
73570;SHT30;61850;54.980;73.298;2022-08-01T02:20:59;21.58;73.72
73570;SHT30;61850;54.980;73.298;2022-08-01T02:23:31;21.59;73.52
73570;SHT30;61850;54.980;73.298;2022-08-01T02:26:14;21.60;73.49
73570;SHT30;61850;54.980;73.298;2022-08-01T02:28:53;21.63;73.57
73570;SHT30;61850;54.980;73.298;2022-08-01T02:31:23;21.65;73.62
73570;SHT30;61850;54.980;73.298;2022-08-01T02:34:04;21.76;73.20
73570;SHT30;61850;54.980;73.298;2022-08-01T02:36:33;21.80;73.02
73570;SHT30;61850;54.980;73.298;2022-08-01T02:39:08;21.85;73.02
73570;SHT30;61850;54.980;73.298;2022-08-01T02:41:42;21.92;72.82
73570;SHT30;61850;54.980;73.298;2022-08-01T02:44:11;21.96;72.58
73570;SHT30;61850;54.980;73.298;2022-08-01T02:47:00;21.99;72.51
73570;SHT30;61850;54.980;73.298;2022-08-01T02:49:45;22.06;72.46
73570;SHT30;61850;54.980;73.298;2022-08-01T02:52:16;22.08;72.57
73570;SHT30;61850;54.980;73.298;2022-08-01T02:54:47;22.16;72.49
73570;SHT30;61850;54.980;73.298;2022-08-01T02:57:28;22.17;72.17
73570;SHT30;61850;54.980;73.298;2022-08-01T02:59:58;22.22;72.08
73570;SHT30;61850;54.980;73.298;2022-08-01T03:02:26;22.31;71.87
73570;SHT30;61850;54.980;73.298;2022-08-01T03:05:04;22.28;72.38
73570;SHT30;61850;54.980;73.298;2022-08-01T03:07:32;22.18;72.69
73570;SHT30;61850;54.980;73.298;2022-08-01T03:09:59;22.34;72.12
73570;SHT30;61850;54.980;73.298;2022-08-01T03:15:27;22.44;71.96
73570;SHT30;61850;54.980;73.298;2022-08-01T03:18:26;22.37;72.39
73570;SHT30;61850;54.980;73.298;2022-08-01T03:20:59;22.51;72.27
73570;SHT30;61850;54.980;73.298;2022-08-01T03:23:26;22.66;71.85
73570;SHT30;61850;54.980;73.298;2022-08-01T03:25:54;22.77;71.61
73570;SHT30;61850;54.980;73.298;2022-08-01T03:28:24;22.84;71.33
73570;SHT30;61850;54.980;73.298;2022-08-01T03:30:52;22.92;70.94
73570;SHT30;61850;54.980;73.298;2022-08-01T03:33:19;22.98;70.66
73570;SHT30;61850;54.980;73.298;2022-08-01T03:35:48;22.98;70.19
73570;SHT30;61850;54.980;73.298;2022-08-01T03:44:32;23.14;69.38
73570;SHT30;61850;54.980;73.298;2022-08-01T03:47:04;23.28;69.34
73570;SHT30;61850;54.980;73.298;2022-08-01T03:49:33;23.31;68.88
73570;SHT30;61850;54.980;73.298;2022-08-01T03:52:04;23.24;68.82
73570;SHT30;61850;54.980;73.298;2022-08-01T03:54:34;23.30;68.73
73570;SHT30;61850;54.980;73.298;2022-08-01T03:57:12;23.41;68.49
73570;SHT30;61850;54.980;73.298;2022-08-01T03:59:39;23.47;68.23
73570;SHT30;61850;54.980;73.298;2022-08-01T04:02:06;23.50;68.22
73570;SHT30;61850;54.980;73.298;2022-08-01T04:04:33;23.26;68.56
73570;SHT30;61850;54.980;73.298;2022-08-01T04:07:01;23.24;68.50
73570;SHT30;61850;54.980;73.298;2022-08-01T04:09:32;23.19;68.85
73570;SHT30;61850;54.980;73.298;2022-08-01T04:12:00;23.23;68.56
73570;SHT30;61850;54.980;73.298;2022-08-01T04:14:27;23.43;67.96
73570;SHT30;61850;54.980;73.298;2022-08-01T04:16:54;23.40;68.24
73570;SHT30;61850;54.980;73.298;2022-08-01T04:19:25;23.44;68.16
73570;SHT30;61850;54.980;73.298;2022-08-01T04:21:51;23.47;67.97
73570;SHT30;61850;54.980;73.298;2022-08-01T04:24:19;23.75;67.23
73570;SHT30;61850;54.980;73.298;2022-08-01T04:26:50;23.60;67.32
73570;SHT30;61850;54.980;73.298;2022-08-01T04:29:19;23.65;67.25
73570;SHT30;61850;54.980;73.298;2022-08-01T04:31:48;23.72;67.12
73570;SHT30;61850;54.980;73.298;2022-08-01T04:34:19;23.68;67.11
73570;SHT30;61850;54.980;73.298;2022-08-01T04:36:48;23.72;67.02
73570;SHT30;61850;54.980;73.298;2022-08-01T04:39:16;23.54;67.44
73570;SHT30;61850;54.980;73.298;2022-08-01T04:41:45;23.40;68.10
73570;SHT30;61850;54.980;73.298;2022-08-01T04:44:17;23.37;67.97
73570;SHT30;61850;54.980;73.298;2022-08-01T04:46:44;23.60;67.10
73570;SHT30;61850;54.980;73.298;2022-08-01T04:49:12;23.64;66.80
73570;SHT30;61850;54.980;73.298;2022-08-01T04:51:52;23.53;66.66
73570;SHT30;61850;54.980;73.298;2022-08-01T04:54:35;23.46;66.77
73570;SHT30;61850;54.980;73.298;2022-08-01T04:57:06;23.44;66.84
73570;SHT30;61850;54.980;73.298;2022-08-01T04:59:42;23.44;67.09
73570;SHT30;61850;54.980;73.298;2022-08-01T05:02:14;23.46;67.05
73570;SHT30;61850;54.980;73.298;2022-08-01T05:04:42;23.41;67.43
73570;SHT30;61850;54.980;73.298;2022-08-01T05:07:09;23.41;67.41
73570;SHT30;61850;54.980;73.298;2022-08-01T05:09:45;23.47;66.90
73570;SHT30;61850;54.980;73.298;2022-08-01T05:12:19;23.39;67.28
73570;SHT30;61850;54.980;73.298;2022-08-01T05:14:46;23.47;67.28
73570;SHT30;61850;54.980;73.298;2022-08-01T05:17:12;23.72;66.65
73570;SHT30;61850;54.980;73.298;2022-08-01T05:19:41;23.57;67.18
73570;SHT30;61850;54.980;73.298;2022-08-01T05:22:09;23.97;66.02
73570;SHT30;61850;54.980;73.298;2022-08-01T05:24:38;23.81;66.67
73570;SHT30;61850;54.980;73.298;2022-08-01T05:27:05;24.15;65.61
73570;SHT30;61850;54.980;73.298;2022-08-01T05:29:34;24.08;65.76
73570;SHT30;61850;54.980;73.298;2022-08-01T05:32:00;23.75;67.21
73570;SHT30;61850;54.980;73.298;2022-08-01T05:34:27;23.79;67.12
73570;SHT30;61850;54.980;73.298;2022-08-01T05:36:54;23.78;66.73
73570;SHT30;61850;54.980;73.298;2022-08-01T05:39:23;23.91;66.13
73570;SHT30;61850;54.980;73.298;2022-08-01T05:41:50;23.99;65.67
73570;SHT30;61850;54.980;73.298;2022-08-01T05:44:16;24.11;65.18
73570;SHT30;61850;54.980;73.298;2022-08-01T05:46:42;24.11;64.95
73570;SHT30;61850;54.980;73.298;2022-08-01T05:49:09;23.85;65.72
73570;SHT30;61850;54.980;73.298;2022-08-01T05:51:35;23.97;65.55
73570;SHT30;61850;54.980;73.298;2022-08-01T05:54:02;23.88;65.77
73570;SHT30;61850;54.980;73.298;2022-08-01T05:56:28;23.86;65.75
73570;SHT30;61850;54.980;73.298;2022-08-01T05:58:55;23.97;65.28
73570;SHT30;61850;54.980;73.298;2022-08-01T06:01:21;23.98;64.93
73570;SHT30;61850;54.980;73.298;2022-08-01T06:03:48;24.02;65.11
73570;SHT30;61850;54.980;73.298;2022-08-01T06:06:14;23.86;65.44
73570;SHT30;61850;54.980;73.298;2022-08-01T06:08:41;24.04;65.24
73570;SHT30;61850;54.980;73.298;2022-08-01T06:11:08;24.05;64.84
73570;SHT30;61850;54.980;73.298;2022-08-01T06:13:34;24.12;64.63
73570;SHT30;61850;54.980;73.298;2022-08-01T06:16:01;24.18;64.54
73570;SHT30;61850;54.980;73.298;2022-08-01T06:18:27;24.15;64.69
73570;SHT30;61850;54.980;73.298;2022-08-01T06:20:54;24.01;64.70
73570;SHT30;61850;54.980;73.298;2022-08-01T06:23:25;23.92;64.95
73570;SHT30;61850;54.980;73.298;2022-08-01T06:25:53;23.85;65.23
73570;SHT30;61850;54.980;73.298;2022-08-01T06:28:23;23.95;65.30
73570;SHT30;61850;54.980;73.298;2022-08-01T06:30:50;23.97;65.24
73570;SHT30;61850;54.980;73.298;2022-08-01T06:33:27;23.85;65.80
73570;SHT30;61850;54.980;73.298;2022-08-01T06:35:54;23.74;65.43
73570;SHT30;61850;54.980;73.298;2022-08-01T06:38:21;23.71;65.32
73570;SHT30;61850;54.980;73.298;2022-08-01T06:40:47;23.89;65.11
73570;SHT30;61850;54.980;73.298;2022-08-01T06:43:14;23.95;65.32
73570;SHT30;61850;54.980;73.298;2022-08-01T06:45:41;23.92;65.03
73570;SHT30;61850;54.980;73.298;2022-08-01T06:48:09;24.01;65.07
73570;SHT30;61850;54.980;73.298;2022-08-01T06:53:37;23.86;64.61
73570;SHT30;61850;54.980;73.298;2022-08-01T06:56:06;23.91;64.65
73570;SHT30;61850;54.980;73.298;2022-08-01T06:58:34;23.98;63.84
73570;SHT30;61850;54.980;73.298;2022-08-01T07:03:54;24.29;63.56
73570;SHT30;61850;54.980;73.298;2022-08-01T07:06:22;24.29;63.41
73570;SHT30;61850;54.980;73.298;2022-08-01T07:08:49;24.33;63.53
73570;SHT30;61850;54.980;73.298;2022-08-01T07:11:15;24.43;63.72
73570;SHT30;61850;54.980;73.298;2022-08-01T07:13:52;24.78;62.78
73570;SHT30;61850;54.980;73.298;2022-08-01T07:16:19;24.68;62.82
73570;SHT30;61850;54.980;73.298;2022-08-01T07:18:45;24.56;63.31
73570;SHT30;61850;54.980;73.298;2022-08-01T07:21:12;24.41;63.69
73570;SHT30;61850;54.980;73.298;2022-08-01T07:23:38;24.28;63.72
73570;SHT30;61850;54.980;73.298;2022-08-01T07:26:06;24.08;64.55
73570;SHT30;61850;54.980;73.298;2022-08-01T07:28:33;23.91;64.86
73570;SHT30;61850;54.980;73.298;2022-08-01T07:31:01;23.92;64.79
73570;SHT30;61850;54.980;73.298;2022-08-01T07:33:28;23.99;64.41
73570;SHT30;61850;54.980;73.298;2022-08-01T07:35:54;24.12;64.04
73570;SHT30;61850;54.980;73.298;2022-08-01T07:38:30;24.23;64.08
73570;SHT30;61850;54.980;73.298;2022-08-01T07:40:56;24.40;63.08
73570;SHT30;61850;54.980;73.298;2022-08-01T07:43:29;24.57;62.13
73570;SHT30;61850;54.980;73.298;2022-08-01T07:46:00;24.81;61.86
73570;SHT30;61850;54.980;73.298;2022-08-01T07:48:26;24.77;62.28
73570;SHT30;61850;54.980;73.298;2022-08-01T07:50:53;24.94;62.16
73570;SHT30;61850;54.980;73.298;2022-08-01T07:53:19;25.24;61.02
73570;SHT30;61850;54.980;73.298;2022-08-01T07:55:51;25.19;61.22
73570;SHT30;61850;54.980;73.298;2022-08-01T07:58:17;25.46;60.04
73570;SHT30;61850;54.980;73.298;2022-08-01T08:00:44;25.12;60.88
73570;SHT30;61850;54.980;73.298;2022-08-01T08:03:10;25.28;60.26
73570;SHT30;61850;54.980;73.298;2022-08-01T08:05:37;25.61;59.49
73570;SHT30;61850;54.980;73.298;2022-08-01T08:08:06;25.36;60.41
73570;SHT30;61850;54.980;73.298;2022-08-01T08:10:34;25.67;59.38
73570;SHT30;61850;54.980;73.298;2022-08-01T08:13:01;25.50;59.99
73570;SHT30;61850;54.980;73.298;2022-08-01T08:15:29;25.17;60.89
73570;SHT30;61850;54.980;73.298;2022-08-01T08:17:56;24.88;60.67
73570;SHT30;61850;54.980;73.298;2022-08-01T08:20:22;24.49;61.69
73570;SHT30;61850;54.980;73.298;2022-08-01T08:22:51;24.40;61.31
73570;SHT30;61850;54.980;73.298;2022-08-01T08:25:18;24.53;61.04
73570;SHT30;61850;54.980;73.298;2022-08-01T08:49:23;23.13;62.77
73570;SHT30;61850;54.980;73.298;2022-08-01T08:51:58;23.26;62.34
73570;SHT30;61850;54.980;73.298;2022-08-01T08:54:32;24.52;59.01
73570;SHT30;61850;54.980;73.298;2022-08-01T08:57:01;24.57;59.12
73570;SHT30;61850;54.980;73.298;2022-08-01T09:08:39;25.84;54.36
73570;SHT30;61850;54.980;73.298;2022-08-01T09:11:09;25.69;54.17
73570;SHT30;61850;54.980;73.298;2022-08-01T09:13:38;25.65;53.94
73570;SHT30;61850;54.980;73.298;2022-08-01T09:16:16;25.45;54.15
73570;SHT30;61850;54.980;73.298;2022-08-01T09:18:49;25.28;54.52
73570;SHT30;61850;54.980;73.298;2022-08-01T09:21:23;25.28;54.15
73570;SHT30;61850;54.980;73.298;2022-08-01T09:23:54;25.31;54.10
73570;SHT30;61850;54.980;73.298;2022-08-01T09:26:34;25.86;52.61
73570;SHT30;61850;54.980;73.298;2022-08-01T09:29:22;26.40;51.52
73570;SHT30;61850;54.980;73.298;2022-08-01T09:32:04;27.23;49.54
73570;SHT30;61850;54.980;73.298;2022-08-01T09:34:32;27.98;48.28
73570;SHT30;61850;54.980;73.298;2022-08-01T09:37:02;28.40;46.76
73570;SHT30;61850;54.980;73.298;2022-08-01T09:39:31;28.87;45.80
73570;SHT30;61850;54.980;73.298;2022-08-01T09:42:24;28.94;43.84
73570;SHT30;61850;54.980;73.298;2022-08-01T09:45:01;29.05;43.77
73570;SHT30;61850;54.980;73.298;2022-08-01T09:47:40;29.28;43.06
73570;SHT30;61850;54.980;73.298;2022-08-01T09:50:07;29.55;43.54
73570;SHT30;61850;54.980;73.298;2022-08-01T09:52:33;29.87;42.88
73570;SHT30;61850;54.980;73.298;2022-08-01T09:55:03;29.87;42.66
73570;SHT30;61850;54.980;73.298;2022-08-01T09:57:30;29.98;42.34
73570;SHT30;61850;54.980;73.298;2022-08-01T10:00:00;30.31;41.46
73570;SHT30;61850;54.980;73.298;2022-08-01T10:02:39;29.93;42.60
73570;SHT30;61850;54.980;73.298;2022-08-01T10:05:10;30.29;42.09
73570;SHT30;61850;54.980;73.298;2022-08-01T10:07:55;30.89;40.56
73570;SHT30;61850;54.980;73.298;2022-08-01T10:10:22;30.71;41.34
73570;SHT30;61850;54.980;73.298;2022-08-01T10:12:50;31.16;40.56
73570;SHT30;61850;54.980;73.298;2022-08-01T10:15:17;31.37;40.25
73570;SHT30;61850;54.980;73.298;2022-08-01T10:17:53;31.29;40.07
73570;SHT30;61850;54.980;73.298;2022-08-01T10:20:24;31.34;40.19
73570;SHT30;61850;54.980;73.298;2022-08-01T10:22:55;31.47;39.63
73570;SHT30;61850;54.980;73.298;2022-08-01T10:25:27;30.31;41.65
73570;SHT30;61850;54.980;73.298;2022-08-01T10:27:55;29.66;43.26
73570;SHT30;61850;54.980;73.298;2022-08-01T10:30:23;28.71;44.83
73570;SHT30;61850;54.980;73.298;2022-08-01T10:32:57;28.46;45.22
73570;SHT30;61850;54.980;73.298;2022-08-01T10:35:27;28.19;45.54
73570;SHT30;61850;54.980;73.298;2022-08-01T10:37:54;28.04;45.99
73570;SHT30;61850;54.980;73.298;2022-08-01T10:40:33;28.49;44.34
73570;SHT30;61850;54.980;73.298;2022-08-01T10:43:09;28.92;42.86
73570;SHT30;61850;54.980;73.298;2022-08-01T10:45:41;28.86;43.24
73570;SHT30;61850;54.980;73.298;2022-08-01T10:49:03;29.31;42.43
73570;SHT30;61850;54.980;73.298;2022-08-01T10:51:47;30.38;40.64
73570;SHT30;61850;54.980;73.298;2022-08-01T10:54:27;29.67;41.66
73570;SHT30;61850;54.980;73.298;2022-08-01T10:57:14;29.93;40.60
73570;SHT30;61850;54.980;73.298;2022-08-01T10:59:50;30.21;39.59
73570;SHT30;61850;54.980;73.298;2022-08-01T11:02:32;30.44;38.78
73570;SHT30;61850;54.980;73.298;2022-08-01T11:05:20;30.78;37.93
73570;SHT30;61850;54.980;73.298;2022-08-01T11:07:51;31.16;36.99
73570;SHT30;61850;54.980;73.298;2022-08-01T11:13:01;31.60;36.10
73570;SHT30;61850;54.980;73.298;2022-08-01T11:15:33;31.82;35.52
73570;SHT30;61850;54.980;73.298;2022-08-01T11:18:01;32.19;34.63
73570;SHT30;61850;54.980;73.298;2022-08-01T11:20:33;32.15;34.65
73570;SHT30;61850;54.980;73.298;2022-08-01T11:30:46;28.77;41.84
73570;SHT30;61850;54.980;73.298;2022-08-01T11:33:14;27.94;44.14
73570;SHT30;61850;54.980;73.298;2022-08-01T11:39:10;27.98;44.40
73570;SHT30;61850;54.980;73.298;2022-08-01T11:41:36;28.09;44.23
73570;SHT30;61850;54.980;73.298;2022-08-01T11:46:47;27.74;44.79
73570;SHT30;61850;54.980;73.298;2022-08-01T11:52:25;26.78;44.96
73570;SHT30;61850;54.980;73.298;2022-08-01T11:57:26;26.40;45.92
73570;SHT30;61850;54.980;73.298;2022-08-01T11:59:54;26.21;46.02
73570;SHT30;61850;54.980;73.298;2022-08-01T12:02:31;25.84;46.62
73570;SHT30;61850;54.980;73.298;2022-08-01T12:05:05;25.55;46.52
73570;SHT30;61850;54.980;73.298;2022-08-01T12:07:33;25.29;47.05
73570;SHT30;61850;54.980;73.298;2022-08-01T12:12:32;24.77;48.28
73570;SHT30;61850;54.980;73.298;2022-08-01T12:15:00;24.66;48.63
73570;SHT30;61850;54.980;73.298;2022-08-01T12:17:35;24.70;49.00
73570;SHT30;61850;54.980;73.298;2022-08-01T12:20:04;24.59;49.03
73570;SHT30;61850;54.980;73.298;2022-08-01T12:22:32;24.32;48.85
73570;SHT30;61850;54.980;73.298;2022-08-01T12:25:06;24.02;48.54
73570;SHT30;61850;54.980;73.298;2022-08-01T12:27:36;23.84;47.89
73570;SHT30;61850;54.980;73.298;2022-08-01T12:30:10;23.67;45.53
73570;SHT30;61850;54.980;73.298;2022-08-01T12:32:42;23.71;46.27
73570;SHT30;61850;54.980;73.298;2022-08-01T12:40:17;23.84;46.43
73570;SHT30;61850;54.980;73.298;2022-08-01T12:42:57;23.79;47.04
73570;SHT30;61850;54.980;73.298;2022-08-01T12:45:25;23.62;48.04
73570;SHT30;61850;54.980;73.298;2022-08-01T12:47:56;23.91;47.78
73570;SHT30;61850;54.980;73.298;2022-08-01T12:50:30;23.79;48.39
73570;SHT30;61850;54.980;73.298;2022-08-01T12:52:59;23.60;48.66
73570;SHT30;61850;54.980;73.298;2022-08-01T12:55:26;23.61;48.56
73570;SHT30;61850;54.980;73.298;2022-08-01T12:58:08;23.46;48.37
73570;SHT30;61850;54.980;73.298;2022-08-01T13:00:36;23.28;49.05
73570;SHT30;61850;54.980;73.298;2022-08-01T13:03:10;23.26;49.18
73570;SHT30;61850;54.980;73.298;2022-08-01T13:05:52;23.09;49.96
73570;SHT30;61850;54.980;73.298;2022-08-01T13:08:34;22.95;50.24
73570;SHT30;61850;54.980;73.298;2022-08-01T13:11:10;22.81;50.63
73570;SHT30;61850;54.980;73.298;2022-08-01T13:13:49;22.61;51.16
73570;SHT30;61850;54.980;73.298;2022-08-01T13:16:22;22.51;51.47
73570;SHT30;61850;54.980;73.298;2022-08-01T13:18:52;22.27;52.10
73570;SHT30;61850;54.980;73.298;2022-08-01T13:21:22;22.22;52.12
73570;SHT30;61850;54.980;73.298;2022-08-01T13:29:18;21.73;52.84
73570;SHT30;61850;54.980;73.298;2022-08-01T13:31:45;21.65;53.15
73570;SHT30;61850;54.980;73.298;2022-08-01T13:34:12;21.52;53.53
73570;SHT30;61850;54.980;73.298;2022-08-01T13:36:39;21.52;53.55
73570;SHT30;61850;54.980;73.298;2022-08-01T13:39:11;21.49;53.55
73570;SHT30;61850;54.980;73.298;2022-08-01T13:42:22;21.27;54.41
73570;SHT30;61850;54.980;73.298;2022-08-01T13:44:48;21.25;54.31
73570;SHT30;61850;54.980;73.298;2022-08-01T13:47:17;21.24;54.44
73570;SHT30;61850;54.980;73.298;2022-08-01T13:49:53;21.22;54.68
73570;SHT30;61850;54.980;73.298;2022-08-01T13:52:21;21.17;54.71
73570;SHT30;61850;54.980;73.298;2022-08-01T13:55:08;21.04;55.17
73570;SHT30;61850;54.980;73.298;2022-08-01T13:57:44;21.04;55.30
73570;SHT30;61850;54.980;73.298;2022-08-01T14:00:13;21.02;55.39
73570;SHT30;61850;54.980;73.298;2022-08-01T14:02:43;21.02;55.26
73570;SHT30;61850;54.980;73.298;2022-08-01T14:05:14;20.94;55.33
73570;SHT30;61850;54.980;73.298;2022-08-01T14:07:45;20.83;56.12
73570;SHT30;61850;54.980;73.298;2022-08-01T14:10:21;20.79;56.66
73570;SHT30;61850;54.980;73.298;2022-08-01T14:12:58;20.79;56.79
73570;SHT30;61850;54.980;73.298;2022-08-01T14:15:34;20.81;56.44
73570;SHT30;61850;54.980;73.298;2022-08-01T14:18:09;20.79;56.59
73570;SHT30;61850;54.980;73.298;2022-08-01T14:20:50;20.70;56.80
73570;SHT30;61850;54.980;73.298;2022-08-01T14:23:17;20.63;57.05
73570;SHT30;61850;54.980;73.298;2022-08-01T14:25:46;20.54;57.14
73570;SHT30;61850;54.980;73.298;2022-08-01T14:28:14;20.54;57.23
73570;SHT30;61850;54.980;73.298;2022-08-01T14:30:51;20.52;57.24
73570;SHT30;61850;54.980;73.298;2022-08-01T14:33:27;20.50;57.40
73570;SHT30;61850;54.980;73.298;2022-08-01T14:35:55;20.37;58.14
73570;SHT30;61850;54.980;73.298;2022-08-01T14:38:32;20.36;58.18
73570;SHT30;61850;54.980;73.298;2022-08-01T14:41:00;20.33;58.02
73570;SHT30;61850;54.980;73.298;2022-08-01T14:43:31;20.29;58.14
73570;SHT30;61850;54.980;73.298;2022-08-01T14:46:07;20.19;58.32
73570;SHT30;61850;54.980;73.298;2022-08-01T14:48:36;20.11;58.21
73570;SHT30;61850;54.980;73.298;2022-08-01T14:51:04;20.11;58.32
73570;SHT30;61850;54.980;73.298;2022-08-01T14:53:33;20.06;58.51
73570;SHT30;61850;54.980;73.298;2022-08-01T14:56:03;19.95;59.08
73570;SHT30;61850;54.980;73.298;2022-08-01T14:58:32;19.88;59.17
73570;SHT30;61850;54.980;73.298;2022-08-01T15:00:59;19.87;59.33
73570;SHT30;61850;54.980;73.298;2022-08-01T15:03:25;19.82;59.71
73570;SHT30;61850;54.980;73.298;2022-08-01T15:05:51;19.77;59.82
73570;SHT30;61850;54.980;73.298;2022-08-01T15:08:18;19.73;60.20
73570;SHT30;61850;54.980;73.298;2022-08-01T15:10:44;19.61;60.49
73570;SHT30;61850;54.980;73.298;2022-08-01T15:13:10;19.64;60.35
73570;SHT30;61850;54.980;73.298;2022-08-01T15:15:36;19.66;60.65
73570;SHT30;61850;54.980;73.298;2022-08-01T15:18:03;19.64;60.75
73570;SHT30;61850;54.980;73.298;2022-08-01T15:20:38;19.56;61.21
73570;SHT30;61850;54.980;73.298;2022-08-01T15:23:05;19.54;61.33
73570;SHT30;61850;54.980;73.298;2022-08-01T15:25:34;19.46;61.30
73570;SHT30;61850;54.980;73.298;2022-08-01T15:28:00;19.46;61.97
73570;SHT30;61850;54.980;73.298;2022-08-01T15:30:27;19.40;62.50
73570;SHT30;61850;54.980;73.298;2022-08-01T15:32:54;19.38;62.23
73570;SHT30;61850;54.980;73.298;2022-08-01T15:35:20;19.36;62.39
73570;SHT30;61850;54.980;73.298;2022-08-01T15:37:46;19.26;62.83
73570;SHT30;61850;54.980;73.298;2022-08-01T15:40:13;19.22;62.80
73570;SHT30;61850;54.980;73.298;2022-08-01T15:42:39;19.17;63.02
73570;SHT30;61850;54.980;73.298;2022-08-01T15:45:07;19.10;63.36
73570;SHT30;61850;54.980;73.298;2022-08-01T15:47:35;19.05;63.43
73570;SHT30;61850;54.980;73.298;2022-08-01T15:50:02;18.98;63.86
73570;SHT30;61850;54.980;73.298;2022-08-01T15:52:36;18.94;63.91
73570;SHT30;61850;54.980;73.298;2022-08-01T15:55:05;18.89;63.90
73570;SHT30;61850;54.980;73.298;2022-08-01T15:57:32;18.91;63.85
73570;SHT30;61850;54.980;73.298;2022-08-01T15:59:58;18.94;64.11
73570;SHT30;61850;54.980;73.298;2022-08-01T16:02:35;18.89;64.26
73570;SHT30;61850;54.980;73.298;2022-08-01T16:05:03;18.78;64.45
73570;SHT30;61850;54.980;73.298;2022-08-01T16:07:30;18.75;64.61
73570;SHT30;61850;54.980;73.298;2022-08-01T16:09:56;18.68;64.83
73570;SHT30;61850;54.980;73.298;2022-08-01T16:12:23;18.64;64.95
73570;SHT30;61850;54.980;73.298;2022-08-01T16:14:50;18.51;65.33
73570;SHT30;61850;54.980;73.298;2022-08-01T16:17:16;18.52;65.25
73570;SHT30;61850;54.980;73.298;2022-08-01T16:19:43;18.48;65.53
73570;SHT30;61850;54.980;73.298;2022-08-01T16:22:10;18.44;65.55
73570;SHT30;61850;54.980;73.298;2022-08-01T16:24:37;18.43;65.65
73570;SHT30;61850;54.980;73.298;2022-08-01T16:27:08;18.38;65.72
73570;SHT30;61850;54.980;73.298;2022-08-01T16:29:36;18.37;65.81
73570;SHT30;61850;54.980;73.298;2022-08-01T16:32:03;18.33;65.91
73570;SHT30;61850;54.980;73.298;2022-08-01T16:34:29;18.29;65.94
73570;SHT30;61850;54.980;73.298;2022-08-01T16:36:55;18.27;66.09
73570;SHT30;61850;54.980;73.298;2022-08-01T16:39:22;18.23;66.02
73570;SHT30;61850;54.980;73.298;2022-08-01T16:41:49;18.21;65.97
73570;SHT30;61850;54.980;73.298;2022-08-01T16:44:16;18.16;66.21
73570;SHT30;61850;54.980;73.298;2022-08-01T16:46:42;18.16;66.30
73570;SHT30;61850;54.980;73.298;2022-08-01T16:49:08;18.12;66.41
73570;SHT30;61850;54.980;73.298;2022-08-01T16:51:35;18.07;66.51
73570;SHT30;61850;54.980;73.298;2022-08-01T16:54:02;18.07;66.63
73570;SHT30;61850;54.980;73.298;2022-08-01T16:56:34;18.04;66.89
73570;SHT30;61850;54.980;73.298;2022-08-01T16:59:03;17.97;67.18
73570;SHT30;61850;54.980;73.298;2022-08-01T17:01:30;17.90;67.38
73570;SHT30;61850;54.980;73.298;2022-08-01T17:03:58;17.90;67.63